createdAt,value
2023-04-23T00:00:33.324Z,6.50
2023-04-23T00:03:20.758Z,7.40
2023-04-23T00:05:50.279Z,8.20
2023-04-23T00:08:18.277Z,9.80
2023-04-23T00:10:45.262Z,9.30
2023-04-23T00:13:11.974Z,7.90
2023-04-23T00:15:38.611Z,7.80
2023-04-23T00:18:05.289Z,7.30
2023-04-23T00:20:33.449Z,6.80
2023-04-23T00:23:00.521Z,7.30
2023-04-23T00:25:27.226Z,7.00
2023-04-23T00:27:53.646Z,7.30
2023-04-23T00:30:20.473Z,7.10
2023-04-23T00:32:47.828Z,7.70
2023-04-23T00:35:14.475Z,7.30
2023-04-23T00:37:41.228Z,11.60
2023-04-23T00:40:08.430Z,10.70
2023-04-23T00:42:36.538Z,8.80
2023-04-23T00:45:03.167Z,9.80
2023-04-23T00:47:30.719Z,10.10
2023-04-23T00:49:58.754Z,8.40
2023-04-23T00:52:25.273Z,8.20
2023-04-23T00:54:51.797Z,6.80
2023-04-23T00:57:18.398Z,7.70
2023-04-23T00:59:45.677Z,7.30
2023-04-23T01:02:13.212Z,8.50
2023-04-23T01:04:42.921Z,7.40
2023-04-23T01:07:12.317Z,6.70
2023-04-23T01:09:40.016Z,6.70
2023-04-23T01:12:08.321Z,7.40
2023-04-23T01:14:36.955Z,8.40
2023-04-23T01:17:05.209Z,7.90
2023-04-23T01:19:31.787Z,7.90
2023-04-23T01:22:00.680Z,8.40
2023-04-23T01:24:29.501Z,8.50
2023-04-23T01:26:58.991Z,8.20
2023-04-23T01:29:25.798Z,9.80
2023-04-23T01:31:54.031Z,10.80
2023-04-23T01:34:21.867Z,10.60
2023-04-23T01:36:51.367Z,10.10
2023-04-23T01:39:17.952Z,9.60
2023-04-23T01:41:45.563Z,9.30
2023-04-23T01:44:12.108Z,9.50
2023-04-23T01:46:38.772Z,9.80
2023-04-23T01:49:05.585Z,9.90
2023-04-23T01:51:32.433Z,11.50
2023-04-23T01:53:58.968Z,11.70
2023-04-23T01:56:27.319Z,10.20
2023-04-23T01:58:53.960Z,10.20
2023-04-23T02:01:20.570Z,13.10
2023-04-23T02:03:50.128Z,13.60
2023-04-23T02:06:17.130Z,12.70
2023-04-23T02:08:43.826Z,12.80
2023-04-23T02:11:10.452Z,13.70
2023-04-23T02:13:37.147Z,13.00
2023-04-23T02:16:04.066Z,12.40
2023-04-23T02:18:30.981Z,12.60
2023-04-23T02:20:59.010Z,12.30
2023-04-23T02:23:25.573Z,11.20
2023-04-23T02:25:52.045Z,11.10
2023-04-23T02:28:18.565Z,11.10
2023-04-23T02:30:47.266Z,10.10
2023-04-23T02:33:13.990Z,11.10
2023-04-23T02:35:42.971Z,10.90
2023-04-23T02:38:09.837Z,12.40
2023-04-23T02:41:05.981Z,13.30
2023-04-23T02:43:57.082Z,14.80
2023-04-23T02:47:07.124Z,14.90
2023-04-23T02:50:11.117Z,14.40
2023-04-23T02:53:46.318Z,14.10
2023-04-23T02:56:34.319Z,13.60
2023-04-23T02:59:08.943Z,13.10
2023-04-23T03:01:35.511Z,15.00
2023-04-23T03:04:03.014Z,12.10
2023-04-23T03:06:31.177Z,13.50
2023-04-23T03:08:57.864Z,11.70
2023-04-23T03:11:24.380Z,12.20
2023-04-23T03:13:50.802Z,13.50
2023-04-23T03:16:17.905Z,13.50
2023-04-23T03:18:45.203Z,12.50
2023-04-23T03:21:15.684Z,12.90
2023-04-23T03:24:19.218Z,13.70
2023-04-23T03:27:26.018Z,14.10
2023-04-23T03:30:54.328Z,13.80
2023-04-23T03:34:12.316Z,13.20
2023-04-23T03:37:35.306Z,13.80
2023-04-23T03:40:33.985Z,13.10
2023-04-23T03:43:06.423Z,12.60
2023-04-23T03:46:08.363Z,12.80
2023-04-23T03:49:13.976Z,13.70
2023-04-23T03:52:13.040Z,14.20
2023-04-23T03:54:57.376Z,14.80
2023-04-23T03:57:55.937Z,14.80
2023-04-23T04:00:50.003Z,16.30
2023-04-23T04:03:51.299Z,14.70
2023-04-23T04:06:21.252Z,15.70
2023-04-23T04:09:13.073Z,15.50
2023-04-23T04:11:47.702Z,14.50
2023-04-23T04:14:48.993Z,15.30
2023-04-23T04:17:44.324Z,15.80
2023-04-23T04:20:31.425Z,15.00
2023-04-23T04:23:24.108Z,14.60
2023-04-23T04:26:25.999Z,14.40
2023-04-23T04:29:10.536Z,15.70
2023-04-23T04:31:37.812Z,14.70
2023-04-23T04:34:31.742Z,14.20
2023-04-23T04:37:37.024Z,15.10
2023-04-23T04:40:33.341Z,14.80
2023-04-23T04:43:27.952Z,14.70
2023-04-23T04:46:21.000Z,14.60
2023-04-23T04:49:06.776Z,13.40
2023-04-23T04:51:48.392Z,12.10
2023-04-23T04:54:30.007Z,10.40
2023-04-23T04:57:32.028Z,11.00
2023-04-23T05:00:17.553Z,10.60
2023-04-23T05:03:26.847Z,10.20
2023-04-23T05:06:14.402Z,10.60
2023-04-23T05:09:02.096Z,13.70
2023-04-23T05:12:32.422Z,12.10
2023-04-23T05:15:27.042Z,11.30
2023-04-23T05:18:20.601Z,12.20
2023-04-23T05:21:27.817Z,12.00
2023-04-23T05:24:04.638Z,10.60
2023-04-23T05:26:52.958Z,9.80
2023-04-23T05:29:40.610Z,10.50
2023-04-23T05:32:10.763Z,11.40
2023-04-23T05:35:11.977Z,11.40
2023-04-23T05:38:13.704Z,9.40
2023-04-23T05:40:53.764Z,8.50
2023-04-23T05:43:35.380Z,8.10
2023-04-23T05:46:07.474Z,9.10
2023-04-23T05:48:56.372Z,9.20
2023-04-23T05:52:02.837Z,8.80
2023-04-23T05:54:34.420Z,8.90
2023-04-23T05:57:26.040Z,9.10
2023-04-23T06:00:16.590Z,8.50
2023-04-23T06:03:45.032Z,7.70
2023-04-23T06:07:12.674Z,8.40
2023-04-23T06:10:24.124Z,7.70
2023-04-23T06:13:20.901Z,6.70
2023-04-23T06:16:12.971Z,6.70
2023-04-23T06:19:03.633Z,6.60
2023-04-23T06:22:30.957Z,6.80
2023-04-23T06:25:56.688Z,7.80
2023-04-23T06:29:09.427Z,6.70
2023-04-23T06:35:10.336Z,6.80
2023-04-23T06:38:23.910Z,7.10
2023-04-23T06:42:04.829Z,7.60
2023-04-23T06:45:16.234Z,7.90
2023-04-23T06:47:42.898Z,8.60
2023-04-23T06:50:09.583Z,9.40
2023-04-23T06:52:36.318Z,10.10
2023-04-23T06:55:03.362Z,10.30
2023-04-23T06:57:29.837Z,11.20
2023-04-23T06:59:56.370Z,9.10
2023-04-23T07:02:25.467Z,10.40
2023-04-23T07:04:51.945Z,10.50
2023-04-23T07:07:57.733Z,10.20
2023-04-23T07:11:06.399Z,10.40
2023-04-23T07:14:30.142Z,9.60
2023-04-23T07:18:11.193Z,10.40
2023-04-23T07:21:37.939Z,9.10
2023-04-23T07:24:53.141Z,9.80
2023-04-23T07:27:40.444Z,9.60
2023-04-23T07:31:26.945Z,9.40
2023-04-23T07:34:18.238Z,10.30
2023-04-23T07:36:46.655Z,10.60
2023-04-23T07:39:35.293Z,8.80
2023-04-23T07:42:45.372Z,9.30
2023-04-23T07:45:32.806Z,10.40
2023-04-23T07:48:07.620Z,9.90
2023-04-23T07:50:35.803Z,10.30
2023-04-23T07:53:30.948Z,10.10
2023-04-23T07:56:20.396Z,10.80
2023-04-23T07:59:53.133Z,10.20
2023-04-23T08:02:43.484Z,9.00
2023-04-23T08:05:45.696Z,11.10
2023-04-23T08:08:35.314Z,10.60
2023-04-23T08:11:03.839Z,9.90
2023-04-23T08:13:44.832Z,10.10
2023-04-23T08:16:28.560Z,10.80
2023-04-23T08:19:23.662Z,10.70
2023-04-23T08:22:12.539Z,9.40
2023-04-23T08:24:48.158Z,10.70
2023-04-23T08:27:49.957Z,10.10
2023-04-23T08:30:37.168Z,11.20
2023-04-23T08:33:22.030Z,9.70
2023-04-23T08:35:49.481Z,10.40
2023-04-23T08:38:16.221Z,10.40
2023-04-23T08:40:48.560Z,9.30
2023-04-23T08:43:21.972Z,10.00
2023-04-23T08:45:49.063Z,9.70
2023-04-23T08:48:16.223Z,7.50
2023-04-23T08:50:44.972Z,9.20
2023-04-23T08:53:19.027Z,8.90
2023-04-23T08:55:48.385Z,8.20
2023-04-23T08:58:15.106Z,8.50
2023-04-23T09:00:42.339Z,7.80
2023-04-23T09:03:09.232Z,7.40
2023-04-23T09:05:36.583Z,7.70
2023-04-23T09:08:03.028Z,8.00
2023-04-23T09:10:29.638Z,6.60
2023-04-23T09:12:56.279Z,6.90
2023-04-23T09:15:22.865Z,5.40
2023-04-23T09:17:50.403Z,5.60
2023-04-23T09:20:17.017Z,3.60
2023-04-23T09:22:47.773Z,3.60
2023-04-23T09:25:18.179Z,3.10
2023-04-23T09:27:46.448Z,3.10
2023-04-23T09:30:13.991Z,2.90
2023-04-23T09:32:41.859Z,3.30
2023-04-23T09:35:13.156Z,4.20
2023-04-23T09:37:47.637Z,3.80
2023-04-23T09:40:16.118Z,4.20
2023-04-23T09:42:48.922Z,4.10
2023-04-23T09:45:16.168Z,4.80
2023-04-23T09:47:57.244Z,4.00
2023-04-23T09:50:38.292Z,3.00
2023-04-23T09:53:06.618Z,2.90
2023-04-23T09:55:38.011Z,2.90
2023-04-23T09:58:08.000Z,3.00
2023-04-23T10:00:36.818Z,3.90
2023-04-23T10:03:06.009Z,4.00
2023-04-23T10:05:59.842Z,3.70
2023-04-23T10:08:26.785Z,3.70
2023-04-23T10:11:03.174Z,4.20
2023-04-23T10:13:40.552Z,4.10
2023-04-23T10:16:21.749Z,4.90
2023-04-23T10:18:52.549Z,5.00
2023-04-23T10:21:20.216Z,4.90
2023-04-23T10:23:49.520Z,4.00
2023-04-23T10:26:16.540Z,4.00
2023-04-23T10:28:47.419Z,4.30
2023-04-23T10:31:15.328Z,4.70
2023-04-23T10:33:56.118Z,4.20
2023-04-23T10:36:25.364Z,3.30
2023-04-23T10:38:58.300Z,2.90
2023-04-23T10:41:34.799Z,2.80
2023-04-23T10:44:03.042Z,3.00
2023-04-23T10:46:30.864Z,3.00
2023-04-23T10:49:13.663Z,3.00
2023-04-23T10:54:16.312Z,3.10
2023-04-23T10:56:43.332Z,3.80
2023-04-23T10:59:21.990Z,2.90
2023-04-23T11:01:50.260Z,3.30
2023-04-23T11:04:25.309Z,3.30
2023-04-23T11:06:54.972Z,3.20
2023-04-23T11:09:35.682Z,3.10
2023-04-23T11:12:05.392Z,2.80
2023-04-23T11:14:41.342Z,3.10
2023-04-23T11:17:12.237Z,2.80
2023-04-23T11:19:40.760Z,2.70
2023-04-23T11:22:18.060Z,2.70
2023-04-23T11:24:47.214Z,2.70
2023-04-23T11:27:16.757Z,2.80
2023-04-23T11:29:45.896Z,2.50
2023-04-23T11:32:16.334Z,2.50
2023-04-23T11:34:44.678Z,2.70
2023-04-23T11:37:13.063Z,3.00
2023-04-23T11:39:41.274Z,2.90
2023-04-23T11:42:13.496Z,2.70
2023-04-23T11:44:41.282Z,2.90
2023-04-23T11:47:11.758Z,2.90
2023-04-23T11:49:41.943Z,2.70
2023-04-23T11:52:09.551Z,2.70
2023-04-23T11:54:36.258Z,2.30
2023-04-23T11:57:04.242Z,2.40
2023-04-23T11:59:30.774Z,3.30
2023-04-23T12:01:59.266Z,2.70
2023-04-23T12:04:28.892Z,2.60
2023-04-23T12:06:57.265Z,3.50
2023-04-23T12:09:26.249Z,2.50
2023-04-23T12:11:53.207Z,2.90
2023-04-23T12:14:29.348Z,2.70
2023-04-23T12:16:57.309Z,3.30
2023-04-23T12:19:29.388Z,2.60
2023-04-23T12:21:59.879Z,2.30
2023-04-23T12:24:28.563Z,2.80
2023-04-23T12:26:59.861Z,2.70
2023-04-23T12:29:28.598Z,2.60
2023-04-23T12:31:58.437Z,2.70
2023-04-23T12:34:25.019Z,2.70
2023-04-23T12:36:57.240Z,2.50
2023-04-23T12:39:28.883Z,3.50
2023-04-23T12:42:01.925Z,3.30
2023-04-23T12:44:28.891Z,3.00
2023-04-23T12:46:59.321Z,2.70
2023-04-23T12:49:26.918Z,2.50
2023-04-23T12:51:56.776Z,2.50
2023-04-23T12:54:25.880Z,2.50
2023-04-23T12:56:53.086Z,2.50
2023-04-23T12:59:19.780Z,3.00
2023-04-23T13:01:46.690Z,2.90
2023-04-23T13:04:13.730Z,2.20
2023-04-23T13:06:41.009Z,3.00
2023-04-23T13:09:09.461Z,2.30
2023-04-23T13:11:37.323Z,1.90
2023-04-23T13:14:29.073Z,2.50
2023-04-23T13:16:57.305Z,2.60
2023-04-23T13:19:24.455Z,2.10
2023-04-23T13:21:50.876Z,2.20
2023-04-23T13:24:17.386Z,1.90
2023-04-23T13:26:43.825Z,1.80
2023-04-23T13:29:11.154Z,1.80
2023-04-23T13:31:37.721Z,2.00
2023-04-23T13:34:04.376Z,2.10
2023-04-23T13:36:30.822Z,1.90
2023-04-23T13:38:57.409Z,2.50
2023-04-23T13:41:24.045Z,1.60
2023-04-23T13:43:50.541Z,2.00
2023-04-23T13:46:17.164Z,2.20
2023-04-23T13:48:43.795Z,1.70
2023-04-23T13:51:26.009Z,1.70
2023-04-23T13:56:26.768Z,1.90
2023-04-23T13:58:58.090Z,1.70
2023-04-23T14:01:31.630Z,1.70
2023-04-23T14:03:58.109Z,1.20
2023-04-23T14:06:24.734Z,1.60
2023-04-23T14:08:51.223Z,1.80
2023-04-23T14:11:18.377Z,1.80
2023-04-23T14:13:44.878Z,1.70
2023-04-23T14:16:11.467Z,1.90
2023-04-23T14:18:37.950Z,1.70
2023-04-23T14:21:06.156Z,2.00
2023-04-23T14:23:44.473Z,2.30
2023-04-23T14:26:21.771Z,2.40
2023-04-23T14:28:51.313Z,2.20
2023-04-23T14:31:17.963Z,2.10
2023-04-23T14:33:44.466Z,2.20
2023-04-23T14:36:11.041Z,2.30
2023-04-23T14:38:37.509Z,2.30
2023-04-23T14:41:04.041Z,2.90
2023-04-23T14:43:34.057Z,2.40
2023-04-23T14:46:01.012Z,1.70
2023-04-23T14:48:27.570Z,2.00
2023-04-23T14:50:54.150Z,2.10
2023-04-23T14:53:20.840Z,2.50
2023-04-23T14:55:47.274Z,2.30
2023-04-23T14:58:13.807Z,2.00
2023-04-23T15:00:40.528Z,2.20
2023-04-23T15:03:09.623Z,2.50
2023-04-23T15:05:37.495Z,2.50
2023-04-23T15:08:04.036Z,2.30
2023-04-23T15:10:30.779Z,2.40
2023-04-23T15:13:37.346Z,2.10
2023-04-23T15:16:17.360Z,2.20
2023-04-23T15:18:43.972Z,2.10
2023-04-23T15:21:10.414Z,2.00
2023-04-23T15:23:39.431Z,1.90
2023-04-23T15:26:06.022Z,2.10
2023-04-23T15:28:32.500Z,2.30
2023-04-23T15:30:58.992Z,2.10
2023-04-23T15:33:25.555Z,2.30
2023-04-23T15:35:51.948Z,2.10
2023-04-23T15:38:18.425Z,2.10
2023-04-23T15:40:45.075Z,2.40
2023-04-23T15:43:12.803Z,2.40
2023-04-23T15:45:39.575Z,2.40
2023-04-23T15:48:06.269Z,2.40
2023-04-23T15:50:33.132Z,3.40
2023-04-23T15:53:00.789Z,2.80
2023-04-23T15:55:28.509Z,3.20
2023-04-23T15:57:55.098Z,2.80
2023-04-23T16:00:28.052Z,2.60
2023-04-23T16:02:55.111Z,3.10
2023-04-23T16:05:21.560Z,2.50
2023-04-23T16:07:48.216Z,2.70
2023-04-23T16:10:14.834Z,2.70
2023-04-23T16:12:44.841Z,2.90
2023-04-23T16:17:38.217Z,2.70
2023-04-23T16:20:05.783Z,2.80
2023-04-23T16:22:32.234Z,2.90
2023-04-23T16:24:58.857Z,2.90
2023-04-23T16:27:25.445Z,2.80
2023-04-23T16:29:51.993Z,4.00
2023-04-23T16:32:18.627Z,3.00
2023-04-23T16:34:45.071Z,3.00
2023-04-23T16:37:15.137Z,3.70
2023-04-23T16:39:43.267Z,3.60
2023-04-23T16:42:10.046Z,4.70
2023-04-23T16:44:36.547Z,4.10
2023-04-23T16:47:03.591Z,3.50
2023-04-23T16:49:30.351Z,3.40
2023-04-23T16:51:56.882Z,4.40
2023-04-23T16:54:23.406Z,4.10
2023-04-23T16:56:50.335Z,4.30
2023-04-23T16:59:16.710Z,4.20
2023-04-23T17:01:43.245Z,3.50
2023-04-23T17:04:09.950Z,4.00
2023-04-23T17:06:36.578Z,2.90
2023-04-23T17:09:04.667Z,3.30
2023-04-23T17:11:31.380Z,2.60
2023-04-23T17:13:58.257Z,2.80
2023-04-23T17:16:26.309Z,2.50
2023-04-23T17:18:54.801Z,2.40
2023-04-23T17:21:22.190Z,2.30
2023-04-23T17:23:49.174Z,2.50
2023-04-23T17:26:15.630Z,2.50
2023-04-23T17:28:42.273Z,2.50
2023-04-23T17:31:09.127Z,2.40
2023-04-23T17:33:35.619Z,2.40
2023-04-23T17:36:02.464Z,2.60
2023-04-23T17:38:29.041Z,2.60
2023-04-23T17:40:55.843Z,4.80
2023-04-23T17:43:22.290Z,3.60
2023-04-23T17:45:49.016Z,3.00
2023-04-23T17:48:15.631Z,2.40
2023-04-23T17:50:43.072Z,2.50
2023-04-23T17:53:09.860Z,2.80
2023-04-23T17:55:36.629Z,3.20
2023-04-23T17:58:06.526Z,3.20
2023-04-23T18:00:35.727Z,2.70
2023-04-23T18:03:19.740Z,2.60
2023-04-23T18:05:48.536Z,2.50
2023-04-23T18:08:16.822Z,2.50
2023-04-23T18:10:45.785Z,3.10
2023-04-23T18:13:13.267Z,3.10
2023-04-23T18:15:41.770Z,5.20
2023-04-23T18:18:29.050Z,5.60
2023-04-23T18:20:57.441Z,5.60
2023-04-23T18:23:45.887Z,4.90
2023-04-23T18:26:19.304Z,5.00
2023-04-23T18:28:46.526Z,5.00
2023-04-23T18:31:20.898Z,4.20
2023-04-23T18:33:54.991Z,4.00
2023-04-23T18:36:33.576Z,4.10
2023-04-23T18:39:35.135Z,4.20
2023-04-23T18:42:04.044Z,4.70
2023-04-23T18:44:31.702Z,4.40
2023-04-23T18:46:58.672Z,4.90
2023-04-23T18:49:45.435Z,4.20
2023-04-23T18:52:12.126Z,4.30
2023-04-23T18:54:38.799Z,4.80
2023-04-23T18:57:05.500Z,4.90
2023-04-23T18:59:35.106Z,3.90
2023-04-23T19:02:02.915Z,3.60
2023-04-23T19:04:33.066Z,4.00
2023-04-23T19:06:59.818Z,3.80
2023-04-23T19:09:26.775Z,4.60
2023-04-23T19:11:53.811Z,4.40
2023-04-23T19:14:20.404Z,4.40
2023-04-23T19:16:46.900Z,4.30
2023-04-23T19:19:13.722Z,4.70
2023-04-23T19:21:40.255Z,4.20
2023-04-23T19:24:06.993Z,4.30
2023-04-23T19:26:34.008Z,4.00
2023-04-23T19:29:15.292Z,3.80
2023-04-23T19:31:44.298Z,4.30
2023-04-23T19:34:15.801Z,4.90
2023-04-23T19:36:42.470Z,4.30
2023-04-23T19:39:32.977Z,4.10
2023-04-23T19:42:01.771Z,4.60
2023-04-23T19:44:28.801Z,4.20
2023-04-23T19:47:04.861Z,4.30
2023-04-23T19:49:34.526Z,4.10
2023-04-23T19:52:03.017Z,4.60
2023-04-23T19:54:37.786Z,4.00
2023-04-23T19:57:04.290Z,4.60
2023-04-23T19:59:31.452Z,4.40
2023-04-23T20:02:11.574Z,4.70
2023-04-23T20:07:13.090Z,4.60
2023-04-23T20:09:41.206Z,4.70
2023-04-23T20:12:14.814Z,5.20
2023-04-23T20:14:41.877Z,4.60
2023-04-23T20:17:22.430Z,4.50
2023-04-23T20:20:05.791Z,5.10
2023-04-23T20:22:39.793Z,4.90
2023-04-23T20:25:13.632Z,4.40
2023-04-23T20:27:40.424Z,4.90
2023-04-23T20:30:13.570Z,5.20
2023-04-23T20:32:41.191Z,4.90
2023-04-23T20:35:08.789Z,4.60
2023-04-23T20:37:37.824Z,4.20
2023-04-23T20:40:25.502Z,4.10
2023-04-23T20:45:27.219Z,4.60
2023-04-23T20:48:34.048Z,5.10
2023-04-23T20:54:14.040Z,4.80
2023-04-23T20:57:03.870Z,5.70
2023-04-23T21:00:32.754Z,5.10
2023-04-23T21:03:19.667Z,5.00
2023-04-23T21:06:09.328Z,5.10
2023-04-23T21:08:41.975Z,5.00
2023-04-23T21:11:50.878Z,5.00
2023-04-23T21:14:32.285Z,5.10
2023-04-23T21:17:13.713Z,4.90
2023-04-23T21:19:56.819Z,5.10
2023-04-23T21:22:40.385Z,6.20
2023-04-23T21:25:27.983Z,5.10
2023-04-23T21:31:34.033Z,5.00
2023-04-23T21:34:22.981Z,5.80
2023-04-23T21:37:23.948Z,5.10
2023-04-23T21:40:49.301Z,5.20
2023-04-23T21:43:51.163Z,5.30
2023-04-23T21:46:38.265Z,5.20
2023-04-23T21:52:17.232Z,5.70
2023-04-23T21:55:12.184Z,5.80
2023-04-23T21:58:22.527Z,5.00
2023-04-23T22:01:12.559Z,4.90
2023-04-23T22:04:42.718Z,5.10
2023-04-23T22:07:24.331Z,5.20
2023-04-23T22:10:42.404Z,6.20
2023-04-23T22:13:40.645Z,5.80
2023-04-23T22:16:50.436Z,5.80
2023-04-23T22:19:59.133Z,6.30
2023-04-23T22:23:07.274Z,5.70
2023-04-23T22:26:01.324Z,5.60
2023-04-23T22:28:28.055Z,5.20
2023-04-23T22:31:24.362Z,5.10
2023-04-23T22:34:54.421Z,4.90
2023-04-23T22:38:24.117Z,4.40
2023-04-23T22:41:27.554Z,4.40
2023-04-23T22:44:34.996Z,4.70
2023-04-23T22:47:26.502Z,3.50
2023-04-23T22:51:13.471Z,5.20
2023-04-23T22:54:49.460Z,4.80
2023-04-23T22:58:15.361Z,4.80
2023-04-23T23:01:44.219Z,4.90
2023-04-23T23:05:07.430Z,6.20
2023-04-23T23:08:34.139Z,6.90
2023-04-23T23:11:49.906Z,5.80
2023-04-23T23:15:36.996Z,5.50
2023-04-23T23:19:04.283Z,5.30
2023-04-23T23:22:12.121Z,5.30
2023-04-23T23:25:08.733Z,4.70
2023-04-23T23:28:06.088Z,5.70
2023-04-23T23:30:40.150Z,6.40
2023-04-23T23:33:58.105Z,6.60
2023-04-23T23:36:56.203Z,6.10
2023-04-23T23:39:53.756Z,7.00
2023-04-23T23:43:02.759Z,5.00
2023-04-23T23:46:06.199Z,5.50
2023-04-23T23:49:20.068Z,5.20
2023-04-23T23:52:04.011Z,5.40
2023-04-23T23:55:09.123Z,5.10
2023-04-23T23:58:24.052Z,5.30
